LIC0032 LEZL-GCTS
Flight info
| Callsign | LIC0032 |
|---|---|
| Flight time | 2h 9m |
| Altitude | 35000 |
| Route | CLANA N857 KORNO/N0449F390 UN857 TERTO |
| Aircraft | A320/M-SDE3FGHIRWY/LB1 |
Departure
| Time | 2026-04-24 22:08 |
|---|---|
| Airport | Seville Airport (LEZL) |
Arrival
| Time | 2026-04-25 00:18 |
|---|---|
| Airport | Tenerife Sur Airport (GCTS) |
| Time | Latitude | Longitude | Altitude | Speed | Heading |
|---|---|---|---|---|---|
| 2026-04-24 21:44 | 37.42338 | -5.89796 | 97 ft | 0 kts | 345° |
| 2026-04-24 21:55 | 37.42329 | -5.89794 | 99 ft | 2 kts | 345° |
| 2026-04-24 21:56 | 37.42314 | -5.89789 | 96 ft | 2 kts | 345° |
| 2026-04-24 21:56 | 37.42297 | -5.89783 | 97 ft | 3 kts | 355° |
| 2026-04-24 21:56 | 37.42280 | -5.89785 | 97 ft | 3 kts | 31° |
| 2026-04-24 21:56 | 37.42269 | -5.89795 | 99 ft | 0 kts | 57° |
| 2026-04-24 21:58 | 37.42277 | -5.89771 | 99 ft | 7 kts | 80° |
| 2026-04-24 21:58 | 37.42261 | -5.89721 | 98 ft | 6 kts | 120° |
| 2026-04-24 21:58 | 37.42234 | -5.89681 | 98 ft | 6 kts | 133° |
| 2026-04-24 21:58 | 37.42204 | -5.89641 | 98 ft | 9 kts | 133° |
| 2026-04-24 21:59 | 37.42151 | -5.89573 | 100 ft | 10 kts | 134° |
| 2026-04-24 21:59 | 37.42104 | -5.89512 | 100 ft | 11 kts | 134° |
| 2026-04-24 21:59 | 37.42046 | -5.89437 | 100 ft | 12 kts | 135° |
| 2026-04-24 21:59 | 37.41992 | -5.89364 | 100 ft | 11 kts | 122° |
| 2026-04-24 22:00 | 37.41983 | -5.89286 | 102 ft | 8 kts | 90° |
| 2026-04-24 22:00 | 37.41984 | -5.89212 | 104 ft | 13 kts | 90° |
| 2026-04-24 22:00 | 37.41984 | -5.89054 | 106 ft | 23 kts | 90° |
| 2026-04-24 22:00 | 37.41984 | -5.88831 | 111 ft | 23 kts | 91° |
| 2026-04-24 22:01 | 37.41985 | -5.88635 | 115 ft | 23 kts | 90° |
| 2026-04-24 22:01 | 37.41987 | -5.88423 | 115 ft | 26 kts | 89° |
| 2026-04-24 22:01 | 37.41987 | -5.88195 | 117 ft | 28 kts | 90° |
| 2026-04-24 22:01 | 37.41988 | -5.87958 | 113 ft | 23 kts | 90° |
| 2026-04-24 22:02 | 37.41988 | -5.87745 | 114 ft | 25 kts | 90° |
| 2026-04-24 22:02 | 37.41989 | -5.87521 | 114 ft | 21 kts | 87° |
| 2026-04-24 22:02 | 37.41977 | -5.87346 | 116 ft | 14 kts | 118° |
| 2026-04-24 22:02 | 37.41973 | -5.87339 | 117 ft | 0 kts | 122° |
| 2026-04-24 22:05 | 37.41960 | -5.87324 | 116 ft | 7 kts | 143° |
| 2026-04-24 22:05 | 37.41913 | -5.87320 | 115 ft | 8 kts | 193° |
| 2026-04-24 22:06 | 37.41858 | -5.87371 | 116 ft | 12 kts | 231° |
| 2026-04-24 22:06 | 37.41808 | -5.87463 | 118 ft | 12 kts | 244° |
| 2026-04-24 22:06 | 37.41802 | -5.87545 | 117 ft | 0 kts | 271° |
| 2026-04-24 22:07 | 37.41802 | -5.87568 | 117 ft | 18 kts | 270° |
| 2026-04-24 22:08 | 37.41796 | -5.88104 | 115 ft | 101 kts | 269° |
| 2026-04-24 22:08 | 37.41792 | -5.89275 | 111 ft | 163 kts | 269° |
| 2026-04-24 22:08 | 37.41818 | -5.90717 | 781 ft | 167 kts | 274° |
| 2026-04-24 22:08 | 37.41973 | -5.92156 | 1651 ft | 170 kts | 278° |
| 2026-04-24 22:09 | 37.42261 | -5.93685 | 2221 ft | 189 kts | 283° |
| 2026-04-24 22:09 | 37.42580 | -5.95396 | 2756 ft | 213 kts | 282° |
| 2026-04-24 22:09 | 37.42904 | -5.97324 | 3376 ft | 238 kts | 282° |
| 2026-04-24 22:09 | 37.43249 | -5.99463 | 4050 ft | 258 kts | 282° |
| 2026-04-24 22:10 | 37.43437 | -6.01747 | 5020 ft | 269 kts | 266° |
| 2026-04-24 22:10 | 37.42906 | -6.04028 | 6025 ft | 278 kts | 242° |
| 2026-04-24 22:10 | 37.41666 | -6.05864 | 7019 ft | 284 kts | 217° |
| 2026-04-24 22:10 | 37.39881 | -6.06929 | 7999 ft | 288 kts | 192° |
| 2026-04-24 22:11 | 37.37878 | -6.07040 | 9016 ft | 291 kts | 175° |
| 2026-04-24 22:11 | 37.35851 | -6.06878 | 10058 ft | 293 kts | 175° |
| 2026-04-24 22:11 | 37.33794 | -6.06709 | 10887 ft | 303 kts | 175° |
| 2026-04-24 22:11 | 37.31611 | -6.06527 | 11272 ft | 327 kts | 175° |
| 2026-04-24 22:12 | 37.29285 | -6.06338 | 11871 ft | 340 kts | 176° |
| 2026-04-24 22:12 | 37.26906 | -6.06150 | 12729 ft | 345 kts | 176° |
| 2026-04-24 22:12 | 37.24505 | -6.05962 | 13626 ft | 348 kts | 176° |
| 2026-04-24 22:12 | 37.22104 | -6.05776 | 14436 ft | 352 kts | 176° |
| 2026-04-24 22:13 | 37.19649 | -6.05596 | 15203 ft | 355 kts | 178° |
| 2026-04-24 22:13 | 37.17169 | -6.05785 | 15967 ft | 359 kts | 189° |
| 2026-04-24 22:13 | 37.14751 | -6.06604 | 16721 ft | 363 kts | 201° |
| 2026-04-24 22:13 | 37.12486 | -6.08040 | 17466 ft | 367 kts | 213° |
| 2026-04-24 22:14 | 37.10454 | -6.10005 | 18221 ft | 371 kts | 219° |
| 2026-04-24 22:14 | 37.08464 | -6.12087 | 18885 ft | 375 kts | 219° |
| 2026-04-24 22:14 | 37.06447 | -6.14192 | 19517 ft | 379 kts | 219° |
| 2026-04-24 22:14 | 37.04406 | -6.16318 | 20145 ft | 384 kts | 219° |
| 2026-04-24 22:15 | 37.02342 | -6.18466 | 20776 ft | 388 kts | 219° |
| 2026-04-24 22:15 | 37.00292 | -6.20621 | 21401 ft | 392 kts | 219° |
| 2026-04-24 22:15 | 36.98198 | -6.22842 | 22027 ft | 397 kts | 219° |
| 2026-04-24 22:15 | 36.96084 | -6.25095 | 22643 ft | 402 kts | 219° |
| 2026-04-24 22:16 | 36.93948 | -6.27377 | 23251 ft | 406 kts | 219° |
| 2026-04-24 22:16 | 36.91788 | -6.29677 | 23816 ft | 410 kts | 219° |
| 2026-04-24 22:16 | 36.89605 | -6.31993 | 24314 ft | 414 kts | 219° |
| 2026-04-24 22:16 | 36.87403 | -6.34327 | 24829 ft | 416 kts | 219° |
| 2026-04-24 22:17 | 36.85187 | -6.36669 | 25335 ft | 418 kts | 219° |
| 2026-04-24 22:17 | 36.82959 | -6.39018 | 25832 ft | 420 kts | 219° |
| 2026-04-24 22:17 | 36.80748 | -6.41346 | 26316 ft | 422 kts | 219° |
| 2026-04-24 22:17 | 36.78496 | -6.43717 | 26794 ft | 425 kts | 219° |
| 2026-04-24 22:18 | 36.76233 | -6.46101 | 27267 ft | 427 kts | 219° |
| 2026-04-24 22:18 | 36.73962 | -6.48495 | 27729 ft | 429 kts | 219° |
| 2026-04-24 22:18 | 36.71681 | -6.50900 | 28203 ft | 431 kts | 218° |
| 2026-04-24 22:18 | 36.69383 | -6.53320 | 28649 ft | 433 kts | 218° |
| 2026-04-24 22:19 | 36.67079 | -6.55746 | 29082 ft | 435 kts | 218° |
| 2026-04-24 22:19 | 36.64763 | -6.58180 | 29521 ft | 437 kts | 218° |
| 2026-04-24 22:19 | 36.62437 | -6.60617 | 29949 ft | 438 kts | 218° |
| 2026-04-24 22:19 | 36.60098 | -6.63063 | 30327 ft | 440 kts | 218° |
| 2026-04-24 22:20 | 36.57778 | -6.65489 | 30630 ft | 442 kts | 218° |
| 2026-04-24 22:20 | 36.55418 | -6.67956 | 30939 ft | 444 kts | 218° |
| 2026-04-24 22:20 | 36.53044 | -6.70435 | 31226 ft | 446 kts | 219° |
| 2026-04-24 22:20 | 36.50663 | -6.72924 | 31506 ft | 449 kts | 219° |
| 2026-04-24 22:21 | 36.48263 | -6.75423 | 31779 ft | 450 kts | 219° |
| 2026-04-24 22:21 | 36.45857 | -6.77913 | 32157 ft | 450 kts | 219° |
| 2026-04-24 22:21 | 36.43454 | -6.80389 | 32529 ft | 449 kts | 219° |
| 2026-04-24 22:21 | 36.41080 | -6.82828 | 32900 ft | 449 kts | 220° |
| 2026-04-24 22:22 | 36.38678 | -6.85295 | 33276 ft | 448 kts | 220° |
| 2026-04-24 22:22 | 36.36243 | -6.87792 | 33646 ft | 448 kts | 220° |
| 2026-04-24 22:22 | 36.33872 | -6.90223 | 34007 ft | 448 kts | 220° |
| 2026-04-24 22:22 | 36.31466 | -6.92688 | 34326 ft | 448 kts | 220° |
| 2026-04-24 22:23 | 36.29062 | -6.95151 | 34650 ft | 448 kts | 221° |
| 2026-04-24 22:23 | 36.26663 | -6.97608 | 34983 ft | 447 kts | 221° |
| 2026-04-24 22:23 | 36.24262 | -7.00065 | 35309 ft | 447 kts | 221° |
| 2026-04-24 22:23 | 36.21869 | -7.02514 | 35623 ft | 446 kts | 221° |
| 2026-04-24 22:24 | 36.19479 | -7.04957 | 35928 ft | 446 kts | 221° |
| 2026-04-24 22:24 | 36.17089 | -7.07396 | 36242 ft | 445 kts | 221° |
| 2026-04-24 22:24 | 36.14706 | -7.09830 | 36545 ft | 444 kts | 221° |
| 2026-04-24 22:24 | 36.12358 | -7.12224 | 36827 ft | 443 kts | 221° |
| 2026-04-24 22:25 | 36.09977 | -7.14651 | 37111 ft | 443 kts | 221° |
| 2026-04-24 22:25 | 36.07602 | -7.17070 | 37402 ft | 442 kts | 221° |
| 2026-04-24 22:25 | 36.05234 | -7.19479 | 37690 ft | 441 kts | 222° |
| 2026-04-24 22:25 | 36.02865 | -7.21887 | 37973 ft | 440 kts | 222° |
| 2026-04-24 22:26 | 36.00504 | -7.24286 | 38246 ft | 440 kts | 222° |
| 2026-04-24 22:26 | 35.98146 | -7.26683 | 38528 ft | 439 kts | 222° |
| 2026-04-24 22:26 | 35.95792 | -7.29072 | 38809 ft | 438 kts | 222° |
| 2026-04-24 22:26 | 35.93442 | -7.31454 | 39008 ft | 437 kts | 222° |
| 2026-04-24 22:27 | 35.91120 | -7.33804 | 39117 ft | 437 kts | 222° |
| 2026-04-24 22:27 | 35.86427 | -7.38542 | 39144 ft | 436 kts | 222° |
| 2026-04-24 22:28 | 35.81729 | -7.43278 | 39142 ft | 436 kts | 222° |
| 2026-04-24 22:28 | 35.77029 | -7.47976 | 39142 ft | 435 kts | 222° |
| 2026-04-24 22:29 | 35.69976 | -7.54995 | 39145 ft | 434 kts | 222° |
| 2026-04-24 22:29 | 35.65313 | -7.59637 | 39149 ft | 434 kts | 222° |
| 2026-04-24 22:30 | 35.60620 | -7.64306 | 39151 ft | 434 kts | 222° |
| 2026-04-24 22:30 | 35.55924 | -7.68959 | 39160 ft | 434 kts | 221° |
| 2026-04-24 22:31 | 35.51225 | -7.73603 | 39159 ft | 433 kts | 222° |
| 2026-04-24 22:31 | 35.46532 | -7.78249 | 39163 ft | 433 kts | 222° |
| 2026-04-24 22:32 | 35.41872 | -7.82848 | 39165 ft | 433 kts | 221° |
| 2026-04-24 22:32 | 35.37196 | -7.87485 | 39164 ft | 432 kts | 222° |
| 2026-04-24 22:33 | 35.32549 | -7.92156 | 39165 ft | 432 kts | 222° |
| 2026-04-24 22:33 | 35.27906 | -7.96812 | 39166 ft | 431 kts | 222° |
| 2026-04-24 22:34 | 35.23257 | -8.01448 | 39169 ft | 431 kts | 222° |
| 2026-04-24 22:34 | 35.18634 | -8.06034 | 39170 ft | 430 kts | 222° |
| 2026-04-24 22:35 | 35.13985 | -8.10644 | 39171 ft | 430 kts | 222° |
| 2026-04-24 22:35 | 35.09345 | -8.15237 | 39170 ft | 430 kts | 222° |
| 2026-04-24 22:36 | 35.04706 | -8.19842 | 39170 ft | 429 kts | 222° |
| 2026-04-24 22:36 | 35.00114 | -8.24394 | 39169 ft | 429 kts | 222° |
| 2026-04-24 22:37 | 34.95479 | -8.28981 | 39170 ft | 428 kts | 222° |
| 2026-04-24 22:37 | 34.90849 | -8.33539 | 39164 ft | 428 kts | 222° |
| 2026-04-24 22:38 | 34.86217 | -8.38092 | 39171 ft | 427 kts | 222° |
| 2026-04-24 22:38 | 34.81596 | -8.42630 | 39170 ft | 427 kts | 222° |
| 2026-04-24 22:39 | 34.76998 | -8.47142 | 39169 ft | 427 kts | 222° |
| 2026-04-24 22:39 | 34.72379 | -8.51673 | 39168 ft | 427 kts | 222° |
| 2026-04-24 22:40 | 34.67761 | -8.56199 | 39167 ft | 427 kts | 222° |
| 2026-04-24 22:40 | 34.63136 | -8.60721 | 39167 ft | 427 kts | 222° |
| 2026-04-24 22:41 | 34.58545 | -8.65204 | 39164 ft | 427 kts | 222° |
| 2026-04-24 22:41 | 34.54699 | -8.68950 | 39165 ft | 427 kts | 222° |
| 2026-04-24 22:42 | 34.49289 | -8.74215 | 39167 ft | 427 kts | 222° |
| 2026-04-24 22:42 | 34.44684 | -8.78683 | 39163 ft | 427 kts | 222° |
| 2026-04-24 22:43 | 34.40048 | -8.83167 | 39168 ft | 427 kts | 221° |
| 2026-04-24 22:43 | 34.35399 | -8.87626 | 39163 ft | 426 kts | 221° |
| 2026-04-24 22:44 | 34.30746 | -8.92082 | 39165 ft | 426 kts | 221° |
| 2026-04-24 22:44 | 34.26105 | -8.96535 | 39167 ft | 426 kts | 222° |
| 2026-04-24 22:45 | 34.21508 | -9.00939 | 39172 ft | 425 kts | 221° |
| 2026-04-24 22:45 | 34.16858 | -9.05379 | 39172 ft | 425 kts | 222° |
| 2026-04-24 22:46 | 34.12225 | -9.09805 | 39175 ft | 424 kts | 221° |
| 2026-04-24 22:46 | 34.07597 | -9.14211 | 39173 ft | 424 kts | 222° |
| 2026-04-24 22:47 | 34.02999 | -9.18579 | 39174 ft | 423 kts | 222° |
| 2026-04-24 22:47 | 33.98380 | -9.22972 | 39174 ft | 422 kts | 222° |
| 2026-04-24 22:48 | 33.93769 | -9.27356 | 39172 ft | 422 kts | 222° |
| 2026-04-24 22:48 | 33.89157 | -9.31719 | 39173 ft | 421 kts | 222° |
| 2026-04-24 22:49 | 33.84589 | -9.36045 | 39174 ft | 421 kts | 222° |
| 2026-04-24 22:49 | 33.79990 | -9.40395 | 39172 ft | 420 kts | 222° |
| 2026-04-24 22:50 | 33.75396 | -9.44730 | 39169 ft | 420 kts | 222° |
| 2026-04-24 22:50 | 33.70804 | -9.49055 | 39172 ft | 419 kts | 222° |
| 2026-04-24 22:51 | 33.66227 | -9.53371 | 39177 ft | 418 kts | 222° |
| 2026-04-24 22:51 | 33.61681 | -9.57642 | 39174 ft | 418 kts | 222° |
| 2026-04-24 22:52 | 33.57107 | -9.61931 | 39175 ft | 417 kts | 222° |
| 2026-04-24 22:52 | 33.52539 | -9.66211 | 39173 ft | 416 kts | 222° |
| 2026-04-24 22:53 | 33.47984 | -9.70479 | 39178 ft | 416 kts | 222° |
| 2026-04-24 22:53 | 33.43455 | -9.74706 | 39172 ft | 415 kts | 222° |
| 2026-04-24 22:54 | 33.38911 | -9.78954 | 39172 ft | 414 kts | 223° |
| 2026-04-24 22:54 | 33.34367 | -9.83200 | 39166 ft | 414 kts | 222° |
| 2026-04-24 22:55 | 33.29820 | -9.87426 | 39168 ft | 414 kts | 222° |
| 2026-04-24 22:55 | 33.25306 | -9.91613 | 39169 ft | 413 kts | 222° |
| 2026-04-24 22:56 | 33.20767 | -9.95825 | 39167 ft | 413 kts | 223° |
| 2026-04-24 22:56 | 33.16236 | -10.00026 | 39165 ft | 412 kts | 223° |
| 2026-04-24 22:57 | 33.11712 | -10.04232 | 39171 ft | 412 kts | 223° |
| 2026-04-24 22:57 | 33.07213 | -10.08396 | 39168 ft | 412 kts | 223° |
| 2026-04-24 22:58 | 33.02684 | -10.12576 | 39167 ft | 412 kts | 223° |
| 2026-04-24 22:58 | 32.98153 | -10.16739 | 39166 ft | 411 kts | 223° |
| 2026-04-24 22:59 | 32.93628 | -10.20903 | 39167 ft | 411 kts | 223° |
| 2026-04-24 23:00 | 32.86842 | -10.27145 | 39166 ft | 411 kts | 223° |
| 2026-04-24 23:00 | 32.82353 | -10.31262 | 39161 ft | 410 kts | 223° |
| 2026-04-24 23:01 | 32.77825 | -10.35394 | 39158 ft | 410 kts | 223° |
| 2026-04-24 23:01 | 32.73307 | -10.39520 | 39141 ft | 409 kts | 223° |
| 2026-04-24 23:02 | 32.68834 | -10.43608 | 39143 ft | 408 kts | 223° |
| 2026-04-24 23:02 | 32.64332 | -10.47721 | 39137 ft | 409 kts | 223° |
| 2026-04-24 23:03 | 32.59827 | -10.51829 | 39135 ft | 409 kts | 223° |
| 2026-04-24 23:03 | 32.55313 | -10.55939 | 39137 ft | 409 kts | 223° |
| 2026-04-24 23:04 | 32.50787 | -10.60042 | 39130 ft | 410 kts | 223° |
| 2026-04-24 23:04 | 32.46285 | -10.64120 | 39135 ft | 410 kts | 223° |
| 2026-04-24 23:05 | 32.41748 | -10.68222 | 39130 ft | 411 kts | 223° |
| 2026-04-24 23:05 | 32.37209 | -10.72327 | 39132 ft | 411 kts | 224° |
| 2026-04-24 23:06 | 32.32704 | -10.76401 | 39128 ft | 411 kts | 224° |
| 2026-04-24 23:06 | 32.28160 | -10.80503 | 39130 ft | 411 kts | 224° |
| 2026-04-24 23:07 | 32.23618 | -10.84598 | 39125 ft | 411 kts | 224° |
| 2026-04-24 23:07 | 32.19069 | -10.88688 | 39125 ft | 411 kts | 224° |
| 2026-04-24 23:08 | 32.14517 | -10.92773 | 39119 ft | 411 kts | 224° |
| 2026-04-24 23:08 | 32.10002 | -10.96833 | 39115 ft | 411 kts | 224° |
| 2026-04-24 23:09 | 32.05448 | -11.00924 | 39113 ft | 411 kts | 224° |
| 2026-04-24 23:09 | 32.00900 | -11.05005 | 39110 ft | 411 kts | 224° |
| 2026-04-24 23:10 | 31.96369 | -11.09052 | 39104 ft | 412 kts | 223° |
| 2026-04-24 23:10 | 31.91803 | -11.13118 | 39101 ft | 412 kts | 223° |
| 2026-04-24 23:11 | 31.87234 | -11.17192 | 39098 ft | 412 kts | 223° |
| 2026-04-24 23:11 | 31.82664 | -11.21266 | 39099 ft | 412 kts | 224° |
| 2026-04-24 23:12 | 31.78092 | -11.25344 | 39087 ft | 413 kts | 223° |
| 2026-04-24 23:12 | 31.73541 | -11.29394 | 39105 ft | 413 kts | 224° |
| 2026-04-24 23:13 | 31.68958 | -11.33475 | 39104 ft | 414 kts | 224° |
| 2026-04-24 23:13 | 31.64383 | -11.37568 | 39109 ft | 414 kts | 224° |
| 2026-04-24 23:14 | 31.59823 | -11.41631 | 39108 ft | 414 kts | 224° |
| 2026-04-24 23:14 | 31.55226 | -11.45710 | 39112 ft | 415 kts | 224° |
| 2026-04-24 23:15 | 31.50623 | -11.49785 | 39117 ft | 415 kts | 224° |
| 2026-04-24 23:15 | 31.46792 | -11.53177 | 39121 ft | 415 kts | 224° |
| 2026-04-24 23:16 | 31.41434 | -11.57919 | 39120 ft | 415 kts | 224° |
| 2026-04-24 23:16 | 31.36821 | -11.61998 | 39120 ft | 416 kts | 224° |
| 2026-04-24 23:17 | 31.32205 | -11.66076 | 39126 ft | 416 kts | 224° |
| 2026-04-24 23:17 | 31.28372 | -11.69464 | 39125 ft | 416 kts | 224° |
| 2026-04-24 23:18 | 31.23750 | -11.73540 | 39127 ft | 416 kts | 224° |
| 2026-04-24 23:18 | 31.18381 | -11.78270 | 39127 ft | 416 kts | 224° |
| 2026-04-24 23:19 | 31.14534 | -11.81646 | 39129 ft | 416 kts | 224° |
| 2026-04-24 23:19 | 31.09906 | -11.85703 | 39129 ft | 416 kts | 224° |
| 2026-04-24 23:20 | 31.05282 | -11.89764 | 39127 ft | 416 kts | 224° |
| 2026-04-24 23:20 | 31.00651 | -11.93824 | 39125 ft | 416 kts | 224° |
| 2026-04-24 23:21 | 30.95268 | -11.98520 | 39114 ft | 416 kts | 223° |
| 2026-04-24 23:21 | 30.91411 | -12.01879 | 39119 ft | 416 kts | 223° |
| 2026-04-24 23:22 | 30.86780 | -12.05919 | 39119 ft | 416 kts | 223° |
| 2026-04-24 23:22 | 30.82146 | -12.09958 | 39128 ft | 416 kts | 223° |
| 2026-04-24 23:23 | 30.77539 | -12.13970 | 39127 ft | 416 kts | 223° |
| 2026-04-24 23:23 | 30.72903 | -12.18005 | 39116 ft | 416 kts | 223° |
| 2026-04-24 23:24 | 30.68259 | -12.22025 | 39109 ft | 416 kts | 223° |
| 2026-04-24 23:24 | 30.63618 | -12.26050 | 39110 ft | 417 kts | 223° |
| 2026-04-24 23:25 | 30.58976 | -12.30078 | 39118 ft | 417 kts | 223° |
| 2026-04-24 23:25 | 30.54359 | -12.34073 | 39114 ft | 417 kts | 223° |
| 2026-04-24 23:26 | 30.49717 | -12.38089 | 39120 ft | 417 kts | 223° |
| 2026-04-24 23:26 | 30.45060 | -12.42092 | 39120 ft | 417 kts | 223° |
| 2026-04-24 23:27 | 30.40395 | -12.46088 | 39117 ft | 417 kts | 223° |
| 2026-04-24 23:27 | 30.35734 | -12.50084 | 39032 ft | 417 kts | 220° |
| 2026-04-24 23:28 | 30.31025 | -12.54126 | 39099 ft | 425 kts | 220° |
| 2026-04-24 23:28 | 30.26284 | -12.58181 | 39102 ft | 427 kts | 220° |
| 2026-04-24 23:29 | 30.21502 | -12.62266 | 39112 ft | 428 kts | 220° |
| 2026-04-24 23:29 | 30.16710 | -12.66357 | 39115 ft | 428 kts | 220° |
| 2026-04-24 23:30 | 30.11915 | -12.70437 | 39125 ft | 428 kts | 220° |
| 2026-04-24 23:30 | 30.07183 | -12.74599 | 39126 ft | 427 kts | 223° |
| 2026-04-24 23:31 | 30.02637 | -12.78926 | 39125 ft | 426 kts | 224° |
| 2026-04-24 23:31 | 29.98093 | -12.83305 | 39126 ft | 426 kts | 223° |
| 2026-04-24 23:32 | 29.93518 | -12.87645 | 39123 ft | 426 kts | 223° |
| 2026-04-24 23:32 | 29.88917 | -12.91953 | 39127 ft | 426 kts | 223° |
| 2026-04-24 23:33 | 29.84307 | -12.96257 | 39128 ft | 427 kts | 223° |
| 2026-04-24 23:33 | 29.79730 | -13.00534 | 39131 ft | 427 kts | 223° |
| 2026-04-24 23:34 | 29.75122 | -13.04837 | 39132 ft | 426 kts | 223° |
| 2026-04-24 23:34 | 29.70515 | -13.09142 | 39127 ft | 426 kts | 223° |
| 2026-04-24 23:35 | 29.65908 | -13.13442 | 39131 ft | 426 kts | 223° |
| 2026-04-24 23:35 | 29.61336 | -13.17698 | 39127 ft | 426 kts | 223° |
| 2026-04-24 23:36 | 29.56731 | -13.21979 | 39128 ft | 426 kts | 223° |
| 2026-04-24 23:36 | 29.52125 | -13.26259 | 39127 ft | 426 kts | 223° |
| 2026-04-24 23:37 | 29.47519 | -13.30532 | 39126 ft | 426 kts | 223° |
| 2026-04-24 23:37 | 29.40642 | -13.36908 | 39128 ft | 426 kts | 223° |
| 2026-04-24 23:38 | 29.36035 | -13.41163 | 39126 ft | 426 kts | 223° |
| 2026-04-24 23:38 | 29.31428 | -13.45425 | 39130 ft | 425 kts | 223° |
| 2026-04-24 23:39 | 29.26822 | -13.49677 | 39128 ft | 425 kts | 223° |
| 2026-04-24 23:39 | 29.22208 | -13.53927 | 39125 ft | 425 kts | 223° |
| 2026-04-24 23:40 | 29.17635 | -13.58144 | 39127 ft | 425 kts | 223° |
| 2026-04-24 23:40 | 29.13022 | -13.62390 | 39126 ft | 425 kts | 223° |
| 2026-04-24 23:41 | 29.08408 | -13.66623 | 39128 ft | 426 kts | 223° |
| 2026-04-24 23:41 | 29.03788 | -13.70855 | 39127 ft | 425 kts | 223° |
| 2026-04-24 23:42 | 28.99205 | -13.75058 | 39128 ft | 425 kts | 223° |
| 2026-04-24 23:42 | 28.94593 | -13.79285 | 39132 ft | 425 kts | 223° |
| 2026-04-24 23:43 | 28.89976 | -13.83509 | 39131 ft | 425 kts | 223° |
| 2026-04-24 23:43 | 28.85358 | -13.87723 | 39133 ft | 425 kts | 223° |
| 2026-04-24 23:44 | 28.80737 | -13.91933 | 39137 ft | 425 kts | 223° |
| 2026-04-24 23:44 | 28.76150 | -13.96107 | 39139 ft | 425 kts | 223° |
| 2026-04-24 23:45 | 28.71536 | -14.00312 | 39135 ft | 425 kts | 223° |
| 2026-04-24 23:45 | 28.67047 | -14.04648 | 39127 ft | 419 kts | 233° |
| 2026-04-24 23:46 | 28.64050 | -14.10231 | 39132 ft | 412 kts | 251° |
| 2026-04-24 23:46 | 28.62039 | -14.16285 | 39136 ft | 412 kts | 251° |
| 2026-04-24 23:47 | 28.60002 | -14.22390 | 39136 ft | 413 kts | 251° |
| 2026-04-24 23:47 | 28.57962 | -14.28497 | 39156 ft | 413 kts | 251° |
| 2026-04-24 23:48 | 28.55919 | -14.34606 | 39148 ft | 413 kts | 251° |
| 2026-04-24 23:48 | 28.53877 | -14.40722 | 39151 ft | 414 kts | 251° |
| 2026-04-24 23:49 | 28.51848 | -14.46794 | 39146 ft | 414 kts | 251° |
| 2026-04-24 23:49 | 28.49796 | -14.52905 | 39149 ft | 414 kts | 251° |
| 2026-04-24 23:50 | 28.47738 | -14.59010 | 39155 ft | 414 kts | 251° |
| 2026-04-24 23:50 | 28.45679 | -14.65111 | 39157 ft | 413 kts | 251° |
| 2026-04-24 23:51 | 28.43620 | -14.71215 | 39149 ft | 413 kts | 251° |
| 2026-04-24 23:51 | 28.41573 | -14.77266 | 39155 ft | 413 kts | 251° |
| 2026-04-24 23:52 | 28.39510 | -14.83357 | 39153 ft | 413 kts | 251° |
| 2026-04-24 23:52 | 28.37447 | -14.89446 | 39160 ft | 413 kts | 251° |
| 2026-04-24 23:53 | 28.35378 | -14.95533 | 39146 ft | 413 kts | 251° |
| 2026-04-24 23:53 | 28.33324 | -15.01572 | 39158 ft | 413 kts | 251° |
| 2026-04-24 23:54 | 28.31258 | -15.07651 | 39147 ft | 413 kts | 251° |
| 2026-04-24 23:54 | 28.29182 | -15.13726 | 39156 ft | 413 kts | 251° |
| 2026-04-24 23:55 | 28.27102 | -15.19794 | 39155 ft | 413 kts | 251° |
| 2026-04-24 23:55 | 28.26062 | -15.22832 | 39020 ft | 413 kts | 251° |
| 2026-04-24 23:55 | 28.25026 | -15.25863 | 38796 ft | 412 kts | 251° |
| 2026-04-24 23:56 | 28.24003 | -15.28851 | 38527 ft | 412 kts | 251° |
| 2026-04-24 23:56 | 28.22960 | -15.31882 | 37972 ft | 413 kts | 251° |
| 2026-04-24 23:56 | 28.21918 | -15.34908 | 37262 ft | 412 kts | 250° |
| 2026-04-24 23:56 | 28.20875 | -15.37935 | 36488 ft | 413 kts | 250° |
| 2026-04-24 23:57 | 28.19829 | -15.40970 | 35702 ft | 414 kts | 250° |
| 2026-04-24 23:57 | 28.18777 | -15.44023 | 34844 ft | 418 kts | 250° |
| 2026-04-24 23:57 | 28.17713 | -15.47108 | 33929 ft | 422 kts | 250° |
| 2026-04-24 23:57 | 28.16643 | -15.50215 | 33101 ft | 422 kts | 249° |
| 2026-04-24 23:58 | 28.15586 | -15.53286 | 32539 ft | 416 kts | 249° |
| 2026-04-24 23:58 | 28.14555 | -15.56279 | 31929 ft | 412 kts | 249° |
| 2026-04-24 23:58 | 28.13515 | -15.59288 | 31315 ft | 409 kts | 249° |
| 2026-04-24 23:58 | 28.12480 | -15.62278 | 30723 ft | 406 kts | 249° |
| 2026-04-24 23:59 | 28.11453 | -15.65244 | 30114 ft | 404 kts | 249° |
| 2026-04-24 23:59 | 28.10432 | -15.68195 | 29461 ft | 400 kts | 249° |
| 2026-04-24 23:59 | 28.09422 | -15.71115 | 28891 ft | 396 kts | 249° |
| 2026-04-24 23:59 | 28.08419 | -15.74002 | 28320 ft | 392 kts | 249° |
| 2026-04-25 00:00 | 28.07425 | -15.76853 | 27756 ft | 388 kts | 249° |
| 2026-04-25 00:00 | 28.06438 | -15.79679 | 27204 ft | 384 kts | 249° |
| 2026-04-25 00:00 | 28.05460 | -15.82480 | 26653 ft | 381 kts | 249° |
| 2026-04-25 00:00 | 28.04503 | -15.85220 | 26135 ft | 378 kts | 249° |
| 2026-04-25 00:01 | 28.03542 | -15.87978 | 25613 ft | 375 kts | 249° |
| 2026-04-25 00:01 | 28.02586 | -15.90712 | 25113 ft | 372 kts | 249° |
| 2026-04-25 00:01 | 28.01638 | -15.93428 | 24616 ft | 369 kts | 249° |
| 2026-04-25 00:01 | 28.00701 | -15.96115 | 24133 ft | 366 kts | 249° |
| 2026-04-25 00:02 | 27.99766 | -15.98787 | 23631 ft | 364 kts | 249° |
| 2026-04-25 00:02 | 27.98839 | -16.01434 | 23100 ft | 360 kts | 249° |
| 2026-04-25 00:02 | 27.97934 | -16.04013 | 22627 ft | 356 kts | 249° |
| 2026-04-25 00:02 | 27.97026 | -16.06603 | 22144 ft | 352 kts | 249° |
| 2026-04-25 00:03 | 27.96131 | -16.09162 | 21677 ft | 348 kts | 249° |
| 2026-04-25 00:03 | 27.95244 | -16.11700 | 21194 ft | 345 kts | 249° |
| 2026-04-25 00:03 | 27.94364 | -16.14210 | 20709 ft | 342 kts | 249° |
| 2026-04-25 00:03 | 27.93486 | -16.16706 | 20225 ft | 340 kts | 249° |
| 2026-04-25 00:04 | 27.92611 | -16.19186 | 19734 ft | 339 kts | 249° |
| 2026-04-25 00:04 | 27.91741 | -16.21644 | 19403 ft | 332 kts | 248° |
| 2026-04-25 00:04 | 27.90897 | -16.24030 | 19203 ft | 323 kts | 248° |
| 2026-04-25 00:04 | 27.90072 | -16.26364 | 18967 ft | 318 kts | 249° |
| 2026-04-25 00:05 | 27.89372 | -16.28699 | 18431 ft | 322 kts | 259° |
| 2026-04-25 00:05 | 27.89159 | -16.31234 | 17541 ft | 326 kts | 265° |
| 2026-04-25 00:05 | 27.89002 | -16.33808 | 16657 ft | 330 kts | 266° |
| 2026-04-25 00:05 | 27.88852 | -16.36403 | 15784 ft | 330 kts | 266° |
| 2026-04-25 00:06 | 27.88701 | -16.38976 | 14947 ft | 327 kts | 266° |
| 2026-04-25 00:06 | 27.88545 | -16.41523 | 14186 ft | 322 kts | 266° |
| 2026-04-25 00:06 | 27.88387 | -16.44056 | 13644 ft | 323 kts | 266° |
| 2026-04-25 00:06 | 27.88230 | -16.46548 | 13157 ft | 321 kts | 266° |
| 2026-04-25 00:07 | 27.88071 | -16.49058 | 12679 ft | 319 kts | 266° |
| 2026-04-25 00:07 | 27.87913 | -16.51551 | 12200 ft | 317 kts | 266° |
| 2026-04-25 00:07 | 27.87756 | -16.54026 | 11723 ft | 315 kts | 266° |
| 2026-04-25 00:07 | 27.87602 | -16.56497 | 11166 ft | 316 kts | 266° |
| 2026-04-25 00:08 | 27.87446 | -16.58972 | 10563 ft | 312 kts | 266° |
| 2026-04-25 00:08 | 27.87293 | -16.61352 | 10237 ft | 293 kts | 266° |
| 2026-04-25 00:08 | 27.87146 | -16.63601 | 10134 ft | 281 kts | 266° |
| 2026-04-25 00:08 | 27.87007 | -16.65758 | 9946 ft | 277 kts | 266° |
| 2026-04-25 00:09 | 27.86870 | -16.67916 | 9629 ft | 274 kts | 266° |
| 2026-04-25 00:09 | 27.86732 | -16.70063 | 9160 ft | 273 kts | 266° |
| 2026-04-25 00:09 | 27.86595 | -16.72199 | 8582 ft | 272 kts | 266° |
| 2026-04-25 00:09 | 27.86456 | -16.74325 | 7960 ft | 270 kts | 267° |
| 2026-04-25 00:10 | 27.86317 | -16.76440 | 7351 ft | 269 kts | 267° |
| 2026-04-25 00:10 | 27.86195 | -16.78546 | 6752 ft | 267 kts | 272° |
| 2026-04-25 00:10 | 27.86554 | -16.80559 | 6423 ft | 262 kts | 296° |
| 2026-04-25 00:10 | 27.87555 | -16.82223 | 6264 ft | 260 kts | 317° |
| 2026-04-25 00:11 | 27.89013 | -16.83385 | 5959 ft | 256 kts | 330° |
| 2026-04-25 00:11 | 27.90482 | -16.84390 | 5666 ft | 238 kts | 331° |
| 2026-04-25 00:11 | 27.91996 | -16.84986 | 5230 ft | 224 kts | 357° |
| 2026-04-25 00:11 | 27.93529 | -16.84707 | 5108 ft | 227 kts | 24° |
| 2026-04-25 00:12 | 27.94773 | -16.83611 | 4755 ft | 231 kts | 53° |
| 2026-04-25 00:12 | 27.95486 | -16.82025 | 4395 ft | 216 kts | 62° |
| 2026-04-25 00:12 | 27.96178 | -16.80601 | 4196 ft | 200 kts | 61° |
| 2026-04-25 00:12 | 27.96749 | -16.79211 | 3961 ft | 189 kts | 65° |
| 2026-04-25 00:13 | 27.97233 | -16.77886 | 3728 ft | 181 kts | 66° |
| 2026-04-25 00:13 | 27.97697 | -16.76576 | 3492 ft | 179 kts | 65° |
| 2026-04-25 00:13 | 27.98155 | -16.75273 | 3262 ft | 178 kts | 66° |
| 2026-04-25 00:13 | 27.98608 | -16.73978 | 3026 ft | 177 kts | 66° |
| 2026-04-25 00:14 | 27.99057 | -16.72695 | 2812 ft | 170 kts | 66° |
| 2026-04-25 00:14 | 27.99474 | -16.71500 | 2593 ft | 155 kts | 66° |
| 2026-04-25 00:14 | 27.99850 | -16.70424 | 2378 ft | 139 kts | 65° |
| 2026-04-25 00:14 | 28.00191 | -16.69447 | 2197 ft | 130 kts | 65° |
| 2026-04-25 00:15 | 28.00515 | -16.68521 | 2025 ft | 127 kts | 65° |
| 2026-04-25 00:15 | 28.00838 | -16.67598 | 1859 ft | 125 kts | 66° |
| 2026-04-25 00:15 | 28.01158 | -16.66683 | 1697 ft | 125 kts | 65° |
| 2026-04-25 00:15 | 28.01476 | -16.65772 | 1521 ft | 125 kts | 66° |
| 2026-04-25 00:16 | 28.01797 | -16.64854 | 1354 ft | 125 kts | 65° |
| 2026-04-25 00:16 | 28.02113 | -16.63947 | 1190 ft | 124 kts | 66° |
| 2026-04-25 00:16 | 28.02431 | -16.63038 | 1024 ft | 125 kts | 66° |
| 2026-04-25 00:16 | 28.02750 | -16.62124 | 853 ft | 126 kts | 67° |
| 2026-04-25 00:17 | 28.03071 | -16.61202 | 682 ft | 129 kts | 68° |
| 2026-04-25 00:17 | 28.03403 | -16.60250 | 513 ft | 131 kts | 67° |
| 2026-04-25 00:17 | 28.03738 | -16.59289 | 349 ft | 131 kts | 68° |
| 2026-04-25 00:17 | 28.04068 | -16.58332 | 221 ft | 129 kts | 68° |
| 2026-04-25 00:18 | 28.04354 | -16.57519 | 206 ft | 81 kts | 67° |
| 2026-04-25 00:18 | 28.04495 | -16.57132 | 214 ft | 31 kts | 65° |
| 2026-04-25 00:18 | 28.04580 | -16.56979 | 210 ft | 18 kts | 54° |
| 2026-04-25 00:18 | 28.04659 | -16.56877 | 209 ft | 13 kts | 49° |
| 2026-04-25 00:19 | 28.04721 | -16.56808 | 216 ft | 12 kts | 24° |
| 2026-04-25 00:19 | 28.04773 | -16.56842 | 211 ft | 10 kts | 280° |
| 2026-04-25 00:19 | 28.04755 | -16.56921 | 210 ft | 11 kts | 249° |
| 2026-04-25 00:19 | 28.04723 | -16.57015 | 218 ft | 15 kts | 249° |
| 2026-04-25 00:20 | 28.04676 | -16.57134 | 213 ft | 19 kts | 242° |
| 2026-04-25 00:20 | 28.04621 | -16.57282 | 214 ft | 19 kts | 248° |
| 2026-04-25 00:20 | 28.04587 | -16.57378 | 213 ft | 14 kts | 249° |
| 2026-04-25 00:20 | 28.04613 | -16.57466 | 210 ft | 13 kts | 333° |
| 2026-04-25 00:21 | 28.04661 | -16.57487 | 210 ft | 7 kts | 328° |
| 2026-04-25 00:21 | 28.04686 | -16.57527 | 210 ft | 6 kts | 277° |
| 2026-04-25 00:21 | 28.04706 | -16.57563 | 209 ft | 6 kts | 332° |
| 2026-04-25 00:21 | 28.04742 | -16.57576 | 211 ft | 4 kts | 343° |
| 2026-04-25 00:22 | 28.04749 | -16.57578 | 209 ft | 1 kts | 343° |
| 2026-04-25 00:22 | 28.04751 | -16.57579 | 209 ft | 0 kts | 343° |